createdAt,value
2023-03-07T00:04:36.236Z,-0.19
2023-03-07T00:14:43.517Z,-0.18
2023-03-07T00:24:50.465Z,-0.08
2023-03-07T00:34:59.176Z,-0.10
2023-03-07T00:45:05.421Z,-0.30
2023-03-07T00:55:13.147Z,-0.49
2023-03-07T01:05:20.348Z,-0.73
2023-03-07T01:15:27.712Z,-0.92
2023-03-07T01:25:38.134Z,-0.91
2023-03-07T01:35:45.265Z,-0.81
2023-03-07T01:46:27.028Z,-0.62
2023-03-07T01:56:34.423Z,-0.50
2023-03-07T02:06:42.056Z,-0.45
2023-03-07T02:16:49.732Z,-0.44
2023-03-07T02:26:58.250Z,-0.44
2023-03-07T02:37:10.097Z,-0.47
2023-03-07T02:47:18.061Z,-0.39
2023-03-07T02:57:28.061Z,-0.23
2023-03-07T03:07:35.384Z,-0.10
2023-03-07T03:17:43.106Z,-0.02
2023-03-07T03:27:50.278Z,-0.00
2023-03-07T03:37:57.975Z,-0.01
2023-03-07T03:48:05.006Z,-0.02
2023-03-07T03:58:12.359Z,-0.08
2023-03-07T04:08:22.403Z,-0.07
2023-03-07T04:18:29.442Z,0.06
2023-03-07T04:28:51.096Z,0.26
2023-03-07T04:38:58.193Z,0.33
2023-03-07T04:49:05.554Z,0.32
2023-03-07T04:59:12.724Z,0.30
2023-03-07T05:09:19.891Z,0.25
2023-03-07T05:19:27.231Z,0.21
2023-03-07T05:29:32.022Z,0.24
2023-03-07T05:39:39.172Z,0.34
2023-03-07T05:49:46.225Z,0.36
2023-03-07T05:59:53.344Z,0.32
2023-03-07T06:10:00.622Z,0.32
2023-03-07T06:20:07.593Z,0.52
2023-03-07T06:30:16.154Z,0.71
2023-03-07T06:40:22.618Z,1.26
2023-03-07T06:50:35.093Z,2.00
2023-03-07T07:00:42.964Z,2.22
2023-03-07T07:10:50.282Z,2.40
2023-03-07T07:20:54.975Z,2.63
2023-03-07T07:31:03.713Z,2.91
2023-03-07T07:41:11.010Z,3.44
2023-03-07T07:51:18.562Z,4.03
2023-03-07T08:01:25.570Z,4.48
2023-03-07T08:11:31.772Z,4.75
2023-03-07T08:21:38.881Z,5.20
2023-03-07T08:31:46.234Z,4.95
2023-03-07T08:41:56.020Z,5.37
2023-03-07T08:52:03.182Z,5.58
2023-03-07T09:02:11.024Z,5.52
2023-03-07T09:12:18.286Z,5.70
2023-03-07T09:22:25.567Z,5.67
2023-03-07T09:32:33.400Z,5.69
2023-03-07T09:52:47.434Z,6.16
2023-03-07T10:02:55.588Z,6.41
2023-03-07T10:13:16.141Z,6.49
2023-03-07T10:24:06.065Z,6.61
2023-03-07T10:34:25.647Z,6.75
2023-03-07T10:44:36.130Z,6.75
2023-03-07T10:54:43.347Z,7.12
2023-03-07T11:04:48.487Z,7.05
2023-03-07T11:14:58.188Z,6.72
2023-03-07T11:25:08.065Z,6.53
2023-03-07T11:35:14.101Z,6.32
2023-03-07T11:45:25.422Z,6.16
2023-03-07T11:55:30.705Z,6.23
2023-03-07T12:05:39.650Z,6.30
2023-03-07T12:15:46.149Z,6.58
2023-03-07T12:25:56.692Z,6.87
2023-03-07T12:36:10.115Z,6.79
2023-03-07T12:46:16.744Z,6.74
2023-03-07T12:56:28.103Z,6.83
2023-03-07T13:06:40.093Z,6.71
2023-03-07T13:16:48.256Z,6.63
2023-03-07T13:26:56.667Z,6.43
2023-03-07T13:37:41.016Z,6.32
2023-03-07T13:47:46.038Z,6.22
2023-03-07T13:57:55.163Z,6.19
2023-03-07T14:08:01.941Z,6.09
2023-03-07T14:18:16.710Z,5.93
2023-03-07T14:28:26.145Z,5.94
2023-03-07T14:38:34.156Z,5.81
2023-03-07T14:48:47.532Z,5.78
2023-03-07T14:58:55.356Z,5.88
2023-03-07T15:09:08.531Z,5.94
2023-03-07T15:19:22.772Z,5.85
2023-03-07T15:29:33.121Z,5.69
2023-03-07T15:39:40.737Z,5.58
2023-03-07T15:49:51.017Z,5.45
2023-03-07T15:59:59.486Z,5.33
2023-03-07T16:10:06.052Z,5.19
2023-03-07T16:20:14.861Z,5.01
2023-03-07T16:30:25.688Z,4.87
2023-03-07T16:40:34.446Z,4.73
2023-03-07T16:50:42.105Z,4.62
2023-03-07T17:00:49.643Z,4.55
2023-03-07T17:10:57.388Z,4.50
2023-03-07T17:21:04.661Z,4.50
2023-03-07T17:31:11.427Z,4.56
2023-03-07T17:41:18.029Z,4.57
2023-03-07T17:51:25.167Z,4.56
2023-03-07T18:01:30.594Z,4.58
2023-03-07T18:11:38.022Z,4.71
2023-03-07T18:21:45.836Z,4.78
2023-03-07T18:31:53.578Z,4.79
2023-03-07T18:42:00.964Z,4.82
2023-03-07T18:52:08.073Z,4.86
2023-03-07T19:02:15.161Z,4.51
2023-03-07T19:12:22.885Z,4.19
2023-03-07T19:22:30.256Z,4.14
2023-03-07T19:32:37.471Z,4.14
2023-03-07T19:42:44.876Z,4.11
2023-03-07T19:52:51.945Z,4.07
2023-03-07T20:03:00.328Z,4.12
2023-03-07T20:13:08.304Z,4.26
2023-03-07T20:23:15.353Z,4.36
2023-03-07T20:33:23.096Z,4.34
2023-03-07T20:43:30.168Z,4.28
2023-03-07T20:53:37.286Z,4.27
2023-03-07T21:03:44.637Z,4.32
2023-03-07T21:13:52.323Z,4.29
2023-03-07T21:24:00.337Z,4.16
2023-03-07T21:34:09.704Z,4.03
2023-03-07T21:44:17.686Z,3.99
2023-03-07T22:04:31.068Z,3.98
2023-03-07T22:14:38.776Z,3.90
2023-03-07T22:24:45.804Z,3.88
2023-03-07T22:34:53.030Z,3.93
2023-03-07T22:45:00.123Z,3.96
2023-03-07T22:55:07.999Z,3.86
2023-03-07T23:15:22.042Z,3.72
2023-03-07T23:25:29.118Z,3.77
2023-03-07T23:35:34.913Z,3.82
2023-03-07T23:45:42.402Z,3.77
2023-03-07T23:55:49.492Z,3.64
